^^
Station Historical Data
Daily Summary for January 20, 2017 Units:  Metric    English   Both
« Previous Day
Next Day »
Daily Weekly Monthly Yearly Custom
  High: Low: Average:
Temperature: 33.1 °C 16.9 °C 23.2 °C
Dew Point: 7.9 °C -8 °C 3.3 °C
Humidity: 51% 7% 32%
Wind Speed: 35.2km/h 6.4km/h 18.7km/h
Wind Gust: 35.4km/h - -
Wind- - SSW
Pressure: 1008.7 hPa 1005.6 hPa -
Precipitation: 0 mm    
Historical Graphs
 
 
Tabular Data for January 20, 2017
Time Temperature Dew Point Pressure Wind Wind Speed Wind Gust Humidity Rainfall Rate (Hourly) solar Conditions
00:01 23.1 °C 6.4 °C 1008.4 hPa SSW 16.3 km/h 20.9 km/h 34% 0 mm 0.0 W/m2
00:11 22.9 °C 6.6 °C 1008.4 hPa SSW 19.5 km/h 22.5 km/h 35% 0 mm 0.0 W/m2
00:16 22.8 °C 6.5 °C 1008.4 hPa SSW 17.7 km/h 19.3 km/h 35% 0 mm 0.0 W/m2
00:21 22.8 °C 6.9 °C 1008.4 hPa SSW 20.9 km/h 24.1 km/h 36% 0 mm 0.0 W/m2
00:31 22.5 °C 7.5 °C 1008.4 hPa SSW 17.7 km/h 24.1 km/h 38% 0 mm 0.0 W/m2
00:36 22.3 °C 7.3 °C 1008.4 hPa SSW 11.1 km/h 22.5 km/h 38% 0 mm 0.0 W/m2
00:41 22.2 °C 7.6 °C 1008.4 hPa SSW 14.3 km/h 17.7 km/h 39% 0 mm 0.0 W/m2
00:51 21.9 °C 7.3 °C 1008.4 hPa SSW 17.7 km/h 20.9 km/h 39% 0 mm 0.0 W/m2
00:56 21.8 °C 7.6 °C 1008.4 hPa SSW 22.7 km/h 22.7 km/h 40% 0 mm 0.0 W/m2
01:01 21.7 °C 7.9 °C 1008.4 hPa SSW 20.9 km/h 25.7 km/h 41% 0 mm 0.0 W/m2
01:06 21.6 °C 7.8 °C 1008.4 hPa SSW 19.5 km/h 24.1 km/h 41% 0 mm 0.0 W/m2
01:11 21.5 °C 7.7 °C 1008.4 hPa SSW 19.5 km/h 25.7 km/h 41% 0 mm 0.0 W/m2
01:16 21.4 °C 7.6 °C 1008.4 hPa SSW 17.7 km/h 25.7 km/h 41% 0 mm 0.0 W/m2
01:22 21.3 °C 7.5 °C 1008.4 hPa SSW 17.7 km/h 22.5 km/h 41% 0 mm 0.0 W/m2
01:31 21.2 °C 7.4 °C 1008 hPa SSW 17.7 km/h 22.5 km/h 41% 0 mm 0.0 W/m2
01:41 21.1 °C 7.3 °C 1008 hPa SSW 19.5 km/h 22.5 km/h 41% 0 mm 0.0 W/m2
01:46 21 °C 7.2 °C 1008 hPa SW 17.7 km/h 22.5 km/h 41% 0 mm 0.0 W/m2
01:51 20.9 °C 7.2 °C 1008 hPa SSW 17.7 km/h 22.5 km/h 41% 0 mm 0.0 W/m2
01:57 20.8 °C 7.1 °C 1008 hPa SSW 16.3 km/h 24.1 km/h 41% 0 mm 0.0 W/m2
02:07 20.7 °C 7 °C 1008 hPa SSW 17.7 km/h 20.9 km/h 41% 0 mm 0.0 W/m2
02:12 20.5 °C 6.4 °C 1008 hPa SSW 14.3 km/h 19.3 km/h 40% 0 mm 0.0 W/m2
02:17 20.4 °C 6.7 °C 1008 hPa SSW 11.1 km/h 19.3 km/h 41% 0 mm 0.0 W/m2
02:27 20.3 °C 6.6 °C 1008 hPa SSW 11.1 km/h 16.1 km/h 41% 0 mm 0.0 W/m2
02:32 20.3 °C 6.6 °C 1008 hPa SSW 14.3 km/h 17.7 km/h 41% 0 mm 0.0 W/m2
02:37 20.2 °C 6.5 °C 1007.7 hPa SSW 11.1 km/h 17.7 km/h 41% 0 mm 0.0 W/m2
02:42 20.1 °C 6.8 °C 1007.7 hPa SSW 13 km/h 19.3 km/h 42% 0 mm 0.0 W/m2
02:47 20.1 °C 6.8 °C 1007.7 hPa SSW 16.3 km/h 17.7 km/h 42% 0 mm 0.0 W/m2
02:52 19.9 °C 6.6 °C 1007.7 hPa SSW 9.7 km/h 17.7 km/h 42% 0 mm 0.0 W/m2
02:57 19.8 °C 6.5 °C 1007.7 hPa SSW 11.1 km/h 16.1 km/h 42% 0 mm 0.0 W/m2
03:02 19.8 °C 6.5 °C 1007.7 hPa SSW 11.1 km/h 12.9 km/h 42% 0 mm 0.0 W/m2
03:07 19.7 °C 6.1 °C 1007.3 hPa SSW 13 km/h 13 km/h 41% 0 mm 0.0 W/m2
03:12 19.6 °C 6 °C 1007.3 hPa SSW 13 km/h 17.7 km/h 41% 0 mm 0.0 W/m2
03:17 19.6 °C 5.6 °C 1007.3 hPa SSW 17.7 km/h 20.9 km/h 40% 0 mm 0.0 W/m2
03:22 19.6 °C 5.6 °C 1007.3 hPa SSW 20.9 km/h 24.1 km/h 40% 0 mm 0.0 W/m2
03:27 19.5 °C 5.5 °C 1007 hPa SSW 16.3 km/h 19.3 km/h 40% 0 mm 0.0 W/m2
03:32 19.5 °C 5.9 °C 1007.3 hPa SSW 17.7 km/h 24.1 km/h 41% 0 mm 0.0 W/m2
03:37 19.4 °C 5.8 °C 1007.3 hPa SSW 14.3 km/h 20.9 km/h 41% 0 mm 0.0 W/m2
03:42 19.3 °C 6.1 °C 1007.3 hPa SSW 14.3 km/h 17.7 km/h 42% 0 mm 0.0 W/m2
03:47 19.2 °C 6 °C 1007.3 hPa SSW 13 km/h 16.1 km/h 42% 0 mm 0.0 W/m2
03:52 19.1 °C 5.9 °C 1007 hPa SSW 16.3 km/h 17.7 km/h 42% 0 mm 0.0 W/m2
03:57 19 °C 6.1 °C 1007 hPa SSW 14.3 km/h 16.1 km/h 43% 0 mm 0.0 W/m2
04:02 19 °C 6.1 °C 1007 hPa SSW 14.3 km/h 16.1 km/h 43% 0 mm 0.0 W/m2
04:07 19.1 °C 6.2 °C 1007 hPa SSW 16.3 km/h 19.3 km/h 43% 0 mm 0.0 W/m2
04:12 19 °C 6.5 °C 1007 hPa SSW 13 km/h 17.7 km/h 44% 0 mm 0.0 W/m2
04:17 18.9 °C 6 °C 1007 hPa SSW 19.5 km/h 22.5 km/h 43% 0 mm 0.0 W/m2
04:22 18.9 °C 6.4 °C 1007 hPa SSW 24.1 km/h 29 km/h 44% 0 mm 0.0 W/m2
04:33 18.8 °C 6.6 °C 1007 hPa SSW 22.7 km/h 29 km/h 45% 0 mm 0.0 W/m2
04:38 18.7 °C 6.5 °C 1006.7 hPa SSW 17.7 km/h 20.9 km/h 45% 0 mm 0.0 W/m2
04:43 18.7 °C 6.5 °C 1007 hPa SSW 11.1 km/h 17.7 km/h 45% 0 mm 0.0 W/m2
04:48 18.6 °C 6.4 °C 1007 hPa SSW 16.3 km/h 20.9 km/h 45% 0 mm 0.0 W/m2
04:53 18.4 °C 6.3 °C 1007 hPa SSW 16.3 km/h 22.5 km/h 45% 0 mm 0.0 W/m2
04:58 18.4 °C 6.3 °C 1007 hPa SW 25.9 km/h 27.4 km/h 45% 0 mm 0.0 W/m2
05:13 18.2 °C 5.7 °C 1007 hPa SSW 17.7 km/h 22.5 km/h 44% 0 mm 0.0 W/m2
05:23 18.1 °C 5.7 °C 1007.3 hPa SSW 17.7 km/h 20.9 km/h 44% 0 mm 0.0 W/m2
05:33 17.9 °C 5.5 °C 1007.7 hPa SSW 20.9 km/h 22.5 km/h 44% 0 mm 0.0 W/m2
05:38 17.8 °C 5.4 °C 1007.7 hPa SSW 19.5 km/h 22.5 km/h 44% 0 mm 0.0 W/m2
05:48 17.7 °C 5.6 °C 1007.7 hPa SSW 16.3 km/h 24.1 km/h 45% 0 mm 0.0 W/m2
05:54 17.6 °C 5.2 °C 1007.7 hPa SSW 17.7 km/h 24.1 km/h 44% 0 mm 0.0 W/m2
06:03 17.5 °C 5.7 °C 1007.7 hPa SSW 20.9 km/h 24.1 km/h 46% 0 mm 0.0 W/m2
06:08 17.4 °C 5.7 °C 1007.7 hPa SSW 19.5 km/h 27.4 km/h 46% 0 mm 0.0 W/m2
06:13 17.2 °C 5.8 °C 1008 hPa SSW 22.7 km/h 29 km/h 47% 0 mm 5.0 W/m2
06:18 17.1 °C 6.3 °C 1007.7 hPa SSW 19.5 km/h 27.4 km/h 49% 0 mm 7.0 W/m2
06:24 16.9 °C 6.1 °C 1007.7 hPa SSW 20.9 km/h 27.4 km/h 49% 0 mm 11.0 W/m2
06:33 16.9 °C 6.4 °C 1007.7 hPa SW 22.7 km/h 25.7 km/h 50% 0 mm 18.0 W/m2
06:49 16.9 °C 6.7 °C 1008 hPa SSW 22.7 km/h 25.7 km/h 51% 0 mm 54.0 W/m2
06:54 17 °C 6.8 °C 1008 hPa SSW 22.7 km/h 25.7 km/h 51% 0 mm 70.0 W/m2
06:59 17.1 °C 6.9 °C 1008 hPa SSW 20.9 km/h 24.1 km/h 51% 0 mm 90.0 W/m2
07:08 17.3 °C 6.8 °C 1008 hPa SSW 17.7 km/h 25.7 km/h 50% 0 mm 130.0 W/m2
07:14 17.4 °C 6.6 °C 1008.4 hPa SSW 22.7 km/h 22.7 km/h 49% 0 mm 153.0 W/m2
07:19 17.6 °C 6.5 °C 1008.4 hPa SSW 17.7 km/h 24.1 km/h 48% 0 mm 172.0 W/m2
07:24 17.7 °C 6.2 °C 1008.4 hPa SSW 14.3 km/h 24.1 km/h 47% 0 mm 197.0 W/m2
07:32 17.8 °C 6.3 °C 1008.4 hPa SSW 17.7 km/h 22.5 km/h 47% 0 mm 220.0 W/m2
07:44 18.2 °C 6.4 °C 1008.4 hPa SW 17.7 km/h 20.9 km/h 46% 0 mm 260.0 W/m2
07:59 18.3 °C 6.5 °C 1008.7 hPa SSW 19.5 km/h 20.9 km/h 46% 0 mm 316.0 W/m2
08:14 18.8 °C 6.9 °C 1008.7 hPa SSW 20.9 km/h 25.7 km/h 46% 0 mm 369.0 W/m2
08:29 19.2 °C 7 °C 1008.7 hPa SW 19.5 km/h 25.7 km/h 45% 0 mm 424.0 W/m2
08:43 19.9 °C 6.9 °C 1008.4 hPa SW 16.3 km/h 22.5 km/h 43% 0 mm 476.0 W/m2
08:54 20.5 °C 7.1 °C 1008.4 hPa SW 20.9 km/h 24.1 km/h 42% 0 mm 513.0 W/m2
09:03 20.9 °C 6.8 °C 1008.4 hPa SW 13 km/h 27.4 km/h 40% 0 mm 550.0 W/m2
09:45 22.7 °C 6 °C 1008.4 hPa SW 19.5 km/h 24.1 km/h 34% 0 mm 679.0 W/m2
10:15 23.8 °C 5.2 °C 1008.4 hPa SW 20.9 km/h 24.1 km/h 30% 0 mm 770.0 W/m2
10:27 24.7 °C 5 °C 1008.4 hPa SW 24.1 km/h 27.4 km/h 28% 0 mm 807.0 W/m2
10:36 25.3 °C 3.3 °C 1008.4 hPa SW 20.9 km/h 27.4 km/h 24% 0 mm 828.0 W/m2
10:47 25.6 °C 2.9 °C 1008.4 hPa SW 19.5 km/h 24.1 km/h 23% 0 mm 856.0 W/m2
11:00 26.5 °C -1.4 °C 1008.4 hPa SW 16.3 km/h 27.4 km/h 16% 0 mm 889.0 W/m2
11:06 27.2 °C 2.3 °C 1008.4 hPa SSW 16.3 km/h 19.3 km/h 20% 0 mm 902.0 W/m2
11:16 27.5 °C -0.6 °C 1008.4 hPa SSW 17.7 km/h 17.7 km/h 16% 0 mm 919.0 W/m2
11:26 28.2 °C -1.8 °C 1008.4 hPa SSW 11.1 km/h 24.1 km/h 14% 0 mm 939.0 W/m2
11:31 28.2 °C -2.8 °C 1008 hPa SW 11.1 km/h 17.7 km/h 13% 0 mm 946.0 W/m2
11:36 28.4 °C -2.7 °C 1008 hPa SSW 16.3 km/h 20.9 km/h 13% 0 mm 953.0 W/m2
11:45 28.9 °C -2.3 °C 1008 hPa SSW 22.7 km/h 24.1 km/h 13% 0 mm 967.0 W/m2
11:51 29.1 °C -2.1 °C 1008 hPa SSW 13 km/h 22.5 km/h 13% 0 mm 972.0 W/m2
11:57 29.2 °C -2 °C 1008 hPa SSW 16.3 km/h 22.5 km/h 13% 0 mm 977.0 W/m2
12:02 29.6 °C -1.7 °C 1008 hPa SW 13 km/h 24.1 km/h 13% 0 mm 981.0 W/m2
12:08 29.8 °C -0.6 °C 1008 hPa SW 25.9 km/h 27.4 km/h 14% 0 mm 986.0 W/m2
12:19 29.7 °C -1.7 °C 1008 hPa SW 19.5 km/h 25.7 km/h 13% 0 mm 995.0 W/m2
12:31 30.2 °C -2.4 °C 1007.7 hPa South 14.3 km/h 25.7 km/h 12% 0 mm 1002.0 W/m2
12:45 30.8 °C -3.1 °C 1007.7 hPa SW 24.1 km/h 30.6 km/h 11% 0 mm 1005.0 W/m2
12:58 31.3 °C -6.9 °C 1007.7 hPa SSE 6.4 km/h 16.1 km/h 8% 0 mm 1009.0 W/m2
13:06 31.5 °C -6.7 °C 1007.3 hPa SSE 11.1 km/h 25.7 km/h 8% 0 mm 1014.0 W/m2
13:23 31.7 °C -5.1 °C 1007.3 hPa SSE 19.5 km/h 24.1 km/h 9% 0 mm 1007.0 W/m2
13:29 31.7 °C -5.1 °C 1007.3 hPa South 19.5 km/h 24.1 km/h 9% 0 mm 1004.0 W/m2
13:56 31.9 °C -4.9 °C 1007.3 hPa SSW 14.3 km/h 22.5 km/h 9% 0 mm 988.0 W/m2
14:11 31.9 °C -4.9 °C 1007.3 hPa South 13 km/h 16.1 km/h 9% 0 mm 972.0 W/m2
14:26 32 °C -6.4 °C 1007 hPa South 28.8 km/h 29 km/h 8% 0 mm 953.0 W/m2
14:41 32.1 °C -6.3 °C 1007 hPa South 20.9 km/h 25.7 km/h 8% 0 mm 928.0 W/m2
14:56 32.2 °C -8 °C 1006.7 hPa SW 9.7 km/h 20.9 km/h 7% 0 mm 904.0 W/m2
15:27 32.8 °C -5.8 °C 1006.3 hPa South 22.7 km/h 25.7 km/h 8% 0 mm 838.0 W/m2
15:52 33.1 °C -5.6 °C 1006.3 hPa SSE 32 km/h 32.2 km/h 8% 0 mm 777.0 W/m2
16:07 33 °C -5.6 °C 1006 hPa SSW 16.3 km/h 27.4 km/h 8% 0 mm 737.0 W/m2
17:37 32.6 °C -5.9 °C 1005.6 hPa SSW 19.5 km/h 27.4 km/h 8% 0 mm 441.0 W/m2
17:52 32.8 °C -5.8 °C 1005.6 hPa SSW 19.5 km/h 22.5 km/h 8% 0 mm 390.0 W/m2
18:06 32.6 °C -7.7 °C 1005.6 hPa SSW 20.9 km/h 27.4 km/h 7% 0 mm 341.0 W/m2
18:15 32.6 °C -7.7 °C 1005.6 hPa SSW 16.3 km/h 25.7 km/h 7% 0 mm 304.0 W/m2
18:26 32.4 °C -7.8 °C 1005.6 hPa SSW 24.1 km/h 24.1 km/h 7% 0 mm 172.0 W/m2
18:45 31.2 °C -1.6 °C 1005.6 hPa SSW 35.2 km/h 35.4 km/h 12% 0 mm 174.0 W/m2
18:56 30.7 °C -2 °C 1006 hPa SSW 32 km/h 35.4 km/h 12% 0 mm 128.0 W/m2
19:05 30.3 °C -2.3 °C 1006 hPa SSW 24.1 km/h 25.7 km/h 12% 0 mm 28.0 W/m2
19:18 30 °C -2.5 °C 1006 hPa South 17.7 km/h 33.8 km/h 12% 0 mm 21.0 W/m2
19:33 29.7 °C -1.7 °C 1006.3 hPa South 20.9 km/h 30.6 km/h 13% 0 mm 18.0 W/m2
19:48 29.4 °C -1.9 °C 1006.3 hPa South 22.7 km/h 29 km/h 13% 0 mm 9.0 W/m2
20:03 29 °C -2.2 °C 1006.7 hPa South 20.9 km/h 24.1 km/h 13% 0 mm 0.0 W/m2
20:48 27.2 °C 4.3 °C 1007.3 hPa SSW 24.1 km/h 33.8 km/h 23% 0 mm 0.0 W/m2
21:33 25.2 °C 4.9 °C 1008 hPa SSW 30.6 km/h 33.8 km/h 27% 0 mm 0.0 W/m2
22:01 24.3 °C 4.6 °C 1008.4 hPa South 22.7 km/h 30.6 km/h 28% 0 mm 0.0 W/m2
22:10 24.1 °C 4.5 °C 1008.4 hPa South 17.7 km/h 30.6 km/h 28% 0 mm 0.0 W/m2
22:19 23.8 °C 4.7 °C 1008.4 hPa SSW 19.5 km/h 29 km/h 29% 0 mm 0.0 W/m2
22:24 23.7 °C 4.1 °C 1008.4 hPa SSW 27.4 km/h 29 km/h 28% 0 mm 0.0 W/m2
22:29 23.6 °C 4 °C 1008.4 hPa SSW 22.7 km/h 29 km/h 28% 0 mm 0.0 W/m2
22:38 23.3 °C 4.3 °C 1008.4 hPa South 24.1 km/h 29 km/h 29% 0 mm 0.0 W/m2
22:43 23.2 °C 4.7 °C 1008.4 hPa SSW 22.7 km/h 29 km/h 30% 0 mm 0.0 W/m2
22:53 23 °C 4.5 °C 1008.4 hPa South 27.4 km/h 27.4 km/h 30% 0 mm 0.0 W/m2
22:58 22.9 °C 3.9 °C 1008.4 hPa SSW 19.5 km/h 30.6 km/h 29% 0 mm 0.0 W/m2
23:03 22.8 °C 3.8 °C 1008.4 hPa SSW 30.6 km/h 30.6 km/h 29% 0 mm 0.0 W/m2
23:13 22.7 °C 3.2 °C 1008.4 hPa SSW 27.4 km/h 32.2 km/h 28% 0 mm 0.0 W/m2
23:23 22.5 °C 3.1 °C 1008.4 hPa SSW 25.9 km/h 30.6 km/h 28% 0 mm 0.0 W/m2
23:33 22.3 °C 2.9 °C 1008.4 hPa SSW 19.5 km/h 29 km/h 28% 0 mm 0.0 W/m2
23:38 22.2 °C 2.8 °C 1008.7 hPa SSW 19.5 km/h 27.4 km/h 28% 0 mm 0.0 W/m2
23:49 22.1 °C 2.2 °C 1008.7 hPa SSW 17.7 km/h 25.7 km/h 27% 0 mm 0.0 W/m2
23:59 21.9 °C 2.6 °C 1008.7 hPa SSW 17.7 km/h 27.4 km/h 28% 0 mm 0.0 W/m2
Canyon Roadhouse, Fishriver Canyon, Namibia
Compliments of Weather Underground - 2.25 mb